createdAt,value
2019-04-26T00:12:24.900Z,7.26
2019-04-26T00:27:31.718Z,7.31
2019-04-26T00:42:39.030Z,7.32
2019-04-26T00:57:47.510Z,7.15
2019-04-26T01:12:55.415Z,6.95
2019-04-26T01:28:03.442Z,7.10
2019-04-26T01:43:16.723Z,6.95
2019-04-26T01:58:25.248Z,6.90
2019-04-26T02:13:33.070Z,6.91
2019-04-26T02:28:41.150Z,6.65
2019-04-26T02:43:50.849Z,6.59
2019-04-26T02:59:05.557Z,6.57
2019-04-26T03:14:15.213Z,6.14
2019-04-26T03:29:45.909Z,6.48
2019-04-26T03:45:16.465Z,6.49
2019-04-26T04:00:31.490Z,6.64
2019-04-26T04:15:46.767Z,6.73
2019-04-26T04:31:29.296Z,8.36
2019-04-26T04:47:24.189Z,9.78
2019-04-26T05:02:51.701Z,10.68
2019-04-26T05:18:22.496Z,13.71
2019-04-26T05:33:40.186Z,16.11
2019-04-26T05:49:34.000Z,17.84
2019-04-26T06:05:14.943Z,18.20
2019-04-26T06:20:47.431Z,17.89
2019-04-26T06:35:56.218Z,18.27
2019-04-26T06:51:23.795Z,18.50
2019-04-26T07:06:46.066Z,19.09
2019-04-26T07:22:35.903Z,20.00
2019-04-26T07:38:18.660Z,21.11
2019-04-26T07:53:43.103Z,21.93
2019-04-26T08:09:01.235Z,22.98
2019-04-26T08:24:16.728Z,22.98
2019-04-26T08:39:32.543Z,23.61
2019-04-26T08:54:41.341Z,24.16
2019-04-26T09:09:57.332Z,25.02
2019-04-26T09:25:14.929Z,25.65
2019-04-26T09:40:22.881Z,26.20
2019-04-26T09:55:35.575Z,26.71
2019-04-26T10:10:38.668Z,27.21
2019-04-26T10:25:47.303Z,27.46
2019-04-26T10:40:55.192Z,27.75
2019-04-26T10:56:10.826Z,28.04
2019-04-26T11:11:18.036Z,28.25
2019-04-26T11:26:26.024Z,28.74
2019-04-26T11:41:34.011Z,29.10
2019-04-26T11:56:41.113Z,29.42
2019-04-26T12:11:50.961Z,28.73
2019-04-26T12:26:57.707Z,28.11
2019-04-26T12:42:08.290Z,28.55
2019-04-26T12:57:16.476Z,28.73
2019-04-26T13:12:26.002Z,29.16
2019-04-26T13:27:34.634Z,28.89
2019-04-26T13:42:47.413Z,28.75
2019-04-26T13:57:55.872Z,28.78
2019-04-26T14:13:02.711Z,29.11
2019-04-26T14:28:12.023Z,29.31
2019-04-26T14:43:22.449Z,29.34
2019-04-26T14:58:30.441Z,28.21
2019-04-26T15:13:40.557Z,27.59
2019-04-26T15:28:50.364Z,27.26
2019-04-26T15:44:05.485Z,27.01
2019-04-26T15:59:12.814Z,26.64
2019-04-26T16:14:24.951Z,26.24
2019-04-26T16:29:39.965Z,25.94
2019-04-26T16:44:46.993Z,25.92
2019-04-26T16:59:57.564Z,25.80
2019-04-26T17:15:03.472Z,25.48
2019-04-26T17:30:13.780Z,24.95
2019-04-26T17:45:23.859Z,24.31
2019-04-26T18:00:45.601Z,23.92
2019-04-26T18:15:46.925Z,23.23
2019-04-26T18:30:53.072Z,22.58
2019-04-26T18:46:08.073Z,21.78
2019-04-26T19:01:17.132Z,19.51
2019-04-26T19:16:42.261Z,19.51
2019-04-26T19:31:52.333Z,18.76
2019-04-26T19:47:07.755Z,17.88
2019-04-26T20:02:15.039Z,17.49
2019-04-26T20:17:23.580Z,17.09
2019-04-26T20:32:35.090Z,17.50
2019-04-26T20:47:41.898Z,17.87
2019-04-26T21:02:48.897Z,18.06
2019-04-26T21:17:56.601Z,17.88
2019-04-26T21:33:07.010Z,17.42
2019-04-26T21:48:18.306Z,17.11
2019-04-26T22:03:24.271Z,16.24
2019-04-26T22:18:35.582Z,15.24
2019-04-26T22:33:42.882Z,14.74
2019-04-26T22:49:01.012Z,13.99
2019-04-26T23:04:03.432Z,13.06
2019-04-26T23:19:19.278Z,12.56
2019-04-26T23:34:25.230Z,12.29
2019-04-26T23:49:33.429Z,12.18
